Time;durP1;ratioP1;P1;durP2;ratioP2;P2;SDS_P1;SDS_P2;PMS_P1;PMS_P2;Temp;Humidity;BMP_temperature;BMP_pressure;BME280_temperature;BME280_humidity;BME280_pressure;Samples;Min_cycle;Max_cycle;Signal;HPM_P1;HPM_P2
2023/05/25 00:00:09;;;;;;;13.30;5.03;;;8.70;99.90;;;;;;4976259;28;20066;-83
2023/05/25 00:02:36;;;;;;;13.63;4.85;;;8.70;99.90;;;;;;4987727;28;20520;-82
2023/05/25 00:05:01;;;;;;;10.57;5.32;;;8.60;99.90;;;;;;4987394;28;20198;-83
2023/05/25 00:07:27;;;;;;;12.57;4.97;;;8.60;99.90;;;;;;4972452;28;20035;-83
2023/05/25 00:09:53;;;;;;;12.25;5.03;;;8.60;99.90;;;;;;4970511;28;20037;-83
2023/05/25 00:12:19;;;;;;;12.48;4.88;;;8.50;99.90;;;;;;4975854;28;20033;-82
2023/05/25 00:14:45;;;;;;;11.20;4.80;;;8.50;99.90;;;;;;4977017;28;20088;-82
2023/05/25 00:17:11;;;;;;;11.93;5.05;;;8.50;99.90;;;;;;4994908;28;20081;-82
2023/05/25 00:19:41;;;;;;;12.75;5.07;;;8.50;99.90;;;;;;4993265;28;20060;-83
2023/05/25 00:22:07;;;;;;;15.02;5.78;;;8.50;99.90;;;;;;4997423;28;20041;-83
2023/05/25 00:24:33;;;;;;;15.38;6.07;;;8.40;99.90;;;;;;4975777;28;20096;-83
2023/05/25 00:26:59;;;;;;;15.50;5.78;;;8.50;99.90;;;;;;4995847;28;20034;-83
2023/05/25 00:29:25;;;;;;;11.93;4.90;;;8.40;99.90;;;;;;4994106;28;20033;-83
2023/05/25 00:31:51;;;;;;;13.57;5.38;;;8.30;99.90;;;;;;4993867;28;20484;-83
2023/05/25 00:34:17;;;;;;;12.48;4.88;;;8.30;99.90;;;;;;4960885;28;20046;-82
2023/05/25 00:36:47;;;;;;;13.30;5.90;;;8.30;99.90;;;;;;4971853;28;20108;-82
2023/05/25 00:39:17;;;;;;;10.88;5.15;;;8.30;99.90;;;;;;4984341;28;20597;-82
2023/05/25 00:41:47;;;;;;;12.40;5.28;;;8.30;99.90;;;;;;4986156;28;20512;-82
2023/05/25 00:44:14;;;;;;;15.38;5.65;;;8.30;99.90;;;;;;4977430;28;20042;-84
2023/05/25 00:46:47;;;;;;;10.73;5.93;;;8.30;99.90;;;;;;4998477;28;20033;-84
2023/05/25 00:49:14;;;;;;;13.48;5.82;;;8.20;99.90;;;;;;4978633;28;20038;-84
2023/05/25 00:51:41;;;;;;;11.80;5.68;;;8.10;99.90;;;;;;4992648;28;20071;-84
2023/05/25 00:57:32;;;;;;;23.65;6.85;;;8.10;99.90;;;;;;5014343;28;20042;-84
2023/05/25 00:59:59;;;;;;;16.92;6.05;;;8.10;99.90;;;;;;4983651;28;20041;-85
2023/05/25 01:02:27;;;;;;;13.40;5.88;;;8.10;99.90;;;;;;4989349;28;20077;-84
2023/05/25 01:04:58;;;;;;;16.55;6.50;;;8.10;99.90;;;;;;4937847;28;20050;-84
2023/05/25 01:07:26;;;;;;;17.27;6.25;;;8.10;99.90;;;;;;4988430;28;20129;-85
2023/05/25 01:09:57;;;;;;;14.63;6.00;;;8.10;99.90;;;;;;4988097;28;20038;-84
2023/05/25 01:12:25;;;;;;;15.50;6.80;;;8.00;99.90;;;;;;4972929;28;20728;-84
2023/05/25 01:14:52;;;;;;;16.25;6.00;;;8.00;99.90;;;;;;4993175;28;20403;-84
2023/05/25 01:17:19;;;;;;;15.13;6.70;;;8.00;99.90;;;;;;4990236;28;20049;-84
2023/05/25 01:19:46;;;;;;;13.38;5.88;;;8.00;99.90;;;;;;4991692;28;20049;-84
2023/05/25 01:22:59;;;;;;;18.67;6.70;;;8.00;99.90;;;;;;4962844;28;20073;-84
2023/05/25 01:25:36;;;;;;;;;;;8.00;99.90;;;;;;4947946;29;20048;-83
2023/05/25 01:28:14;;;;;;;14.23;6.05;;;7.90;99.90;;;;;;4933062;29;20375;-82
2023/05/25 01:30:42;;;;;;;12.45;5.97;;;7.90;99.90;;;;;;4950034;28;20043;-82
2023/05/25 01:33:09;;;;;;;15.65;6.00;;;7.90;99.90;;;;;;4916687;28;20051;-82
2023/05/25 01:35:36;;;;;;;16.98;6.57;;;7.90;99.90;;;;;;4931774;28;20427;-81
2023/05/25 01:38:01;;;;;;;18.98;6.43;;;7.90;99.90;;;;;;4949163;28;20047;-81
2023/05/25 01:40:27;;;;;;;15.15;6.18;;;7.90;99.90;;;;;;4928213;29;20054;-81
2023/05/25 01:42:53;;;;;;;16.80;6.30;;;7.80;99.90;;;;;;4933782;29;20066;-81
2023/05/25 01:45:19;;;;;;;13.82;5.70;;;7.90;99.90;;;;;;4916693;29;20596;-81
2023/05/25 01:47:56;;;;;;;15.63;6.20;;;7.90;99.90;;;;;;4932798;29;20039;-81
2023/05/25 01:50:26;;;;;;;18.45;5.82;;;7.90;99.90;;;;;;4947801;28;20047;-81
2023/05/25 01:53:12;;;;;;;15.18;6.90;;;7.80;99.90;;;;;;4931471;28;20520;-81
2023/05/25 01:55:55;;;;;;;19.80;7.40;;;7.80;99.90;;;;;;4951296;28;20192;-81
2023/05/25 01:58:22;;;;;;;16.73;8.45;;;7.80;99.90;;;;;;4991415;28;20487;-82
2023/05/25 02:00:49;;;;;;;17.17;6.90;;;7.80;99.90;;;;;;4993466;28;20049;-81
2023/05/25 02:03:16;;;;;;;14.65;6.50;;;7.80;99.90;;;;;;5024699;28;20099;-82
2023/05/25 02:05:42;;;;;;;17.10;6.18;;;7.80;99.90;;;;;;4991249;28;20435;-82
2023/05/25 02:08:08;;;;;;;16.15;6.50;;;7.80;99.90;;;;;;4973386;28;20050;-82
2023/05/25 02:10:34;;;;;;;14.65;6.43;;;7.70;99.90;;;;;;4987354;28;20395;-82
2023/05/25 02:13:00;;;;;;;15.55;6.50;;;7.70;99.90;;;;;;4960121;28;20041;-82
2023/05/25 02:15:31;;;;;;;19.55;6.40;;;7.70;99.90;;;;;;4976264;28;20456;-81
2023/05/25 02:17:58;;;;;;;13.32;6.22;;;7.70;99.90;;;;;;4959503;28;20399;-82
2023/05/25 02:20:25;;;;;;;17.15;6.80;;;7.60;99.90;;;;;;4991096;28;20042;-81
2023/05/25 02:22:51;;;;;;;17.50;7.10;;;7.70;99.90;;;;;;4991292;28;20041;-81
2023/05/25 02:25:17;;;;;;;18.75;7.63;;;7.60;99.90;;;;;;4995628;28;20068;-81
2023/05/25 02:27:43;;;;;;;13.43;6.38;;;7.60;99.90;;;;;;4981049;28;20479;-81
2023/05/25 02:30:09;;;;;;;15.98;6.63;;;7.60;99.90;;;;;;4963773;28;20473;-81
2023/05/25 02:32:35;;;;;;;13.40;5.93;;;7.60;99.90;;;;;;4985288;28;20101;-81
2023/05/25 02:35:00;;;;;;;21.98;7.45;;;7.50;99.90;;;;;;4966476;28;20100;-82
2023/05/25 02:37:26;;;;;;;25.48;7.53;;;7.50;99.90;;;;;;4987187;28;20096;-81
2023/05/25 02:39:52;;;;;;;20.50;6.93;;;7.60;99.90;;;;;;4989657;28;20099;-81
2023/05/25 02:42:18;;;;;;;18.50;6.65;;;7.60;99.90;;;;;;4987291;28;20125;-82
2023/05/25 02:44:47;;;;;;;15.20;6.88;;;7.60;99.90;;;;;;5009586;28;20512;-81
2023/05/25 02:47:20;;;;;;;15.75;7.55;;;7.50;99.90;;;;;;4984516;28;20052;-82
2023/05/25 02:49:46;;;;;;;18.52;7.25;;;7.50;99.90;;;;;;4984146;28;20125;-82
2023/05/25 02:52:12;;;;;;;16.25;6.93;;;7.50;99.90;;;;;;4972256;28;20133;-82
2023/05/25 02:54:37;;;;;;;16.13;7.43;;;7.50;99.90;;;;;;4987045;28;20046;-82
2023/05/25 02:57:04;;;;;;;19.67;7.05;;;7.50;99.90;;;;;;4986953;28;20055;-82
2023/05/25 02:59:30;;;;;;;19.38;7.20;;;7.40;99.90;;;;;;4959471;28;20072;-82
2023/05/25 03:02:00;;;;;;;12.18;6.55;;;7.40;99.90;;;;;;4989753;28;20065;-82
2023/05/25 03:04:26;;;;;;;17.80;6.93;;;7.40;99.90;;;;;;4978940;28;20455;-82
2023/05/25 03:06:51;;;;;;;16.05;7.18;;;7.30;99.90;;;;;;4981612;28;20037;-83
2023/05/25 03:09:17;;;;;;;16.42;6.75;;;7.30;99.90;;;;;;4989871;28;20045;-81
2023/05/25 03:11:43;;;;;;;17.45;6.20;;;7.30;99.90;;;;;;4999697;28;20044;-82
2023/05/25 03:14:10;;;;;;;13.80;6.10;;;7.30;99.90;;;;;;4977934;28;20467;-81
2023/05/25 03:16:37;;;;;;;14.10;6.70;;;7.30;99.90;;;;;;4992822;28;20037;-81
2023/05/25 03:19:04;;;;;;;13.60;6.32;;;7.20;99.90;;;;;;4977426;28;20053;-81
2023/05/25 03:21:31;;;;;;;17.95;6.82;;;7.20;99.90;;;;;;5008919;28;20049;-81
2023/05/25 03:23:58;;;;;;;18.15;7.45;;;7.20;99.90;;;;;;5008544;28;20034;-81
2023/05/25 03:26:24;;;;;;;24.77;8.95;;;7.20;99.90;;;;;;4993881;28;20045;-82
2023/05/25 03:28:51;;;;;;;17.40;6.40;;;7.20;99.90;;;;;;4991922;28;20120;-81
2023/05/25 03:31:17;;;;;;;19.17;6.40;;;7.20;99.90;;;;;;4976734;28;20037;-82
2023/05/25 03:33:43;;;;;;;21.38;7.45;;;7.20;99.90;;;;;;4997557;28;20037;-82
2023/05/25 03:36:09;;;;;;;13.70;7.07;;;7.20;99.90;;;;;;4951592;28;20030;-81
2023/05/25 03:38:38;;;;;;;16.52;7.10;;;7.20;99.90;;;;;;4994115;28;20029;-81
2023/05/25 03:41:04;;;;;;;17.33;6.85;;;7.20;99.90;;;;;;4976244;28;20614;-81
2023/05/25 03:43:30;;;;;;;15.23;6.38;;;7.10;99.90;;;;;;4992915;28;20041;-81
2023/05/25 03:45:56;;;;;;;20.45;7.32;;;7.20;99.90;;;;;;4994170;28;20113;-81
2023/05/25 03:48:22;;;;;;;17.75;6.63;;;7.20;99.90;;;;;;5003439;28;20120;-80
2023/05/25 03:50:48;;;;;;;22.20;6.93;;;7.30;99.90;;;;;;5008819;28;20044;-81
2023/05/25 03:53:13;;;;;;;15.85;6.72;;;7.20;99.90;;;;;;5027008;28;20037;-81
2023/05/25 03:55:40;;;;;;;16.42;6.95;;;7.20;99.90;;;;;;4975976;28;20410;-81
2023/05/25 03:58:08;;;;;;;14.18;6.45;;;7.20;99.90;;;;;;4989594;28;20046;-81
2023/05/25 04:00:35;;;;;;;17.50;8.05;;;7.20;99.90;;;;;;5002942;28;20103;-81
2023/05/25 04:03:01;;;;;;;16.23;7.40;;;7.30;99.90;;;;;;4991752;28;20076;-81
2023/05/25 04:05:26;;;;;;;18.33;6.88;;;7.20;99.90;;;;;;5008653;28;20502;-81
2023/05/25 04:07:52;;;;;;;20.45;7.95;;;7.30;99.90;;;;;;5021680;28;20034;-81
2023/05/25 04:10:18;;;;;;;17.52;7.40;;;7.50;99.90;;;;;;4967634;28;20038;-81
2023/05/25 04:12:43;;;;;;;20.23;8.60;;;7.40;99.90;;;;;;5004816;28;20037;-81
2023/05/25 04:15:12;;;;;;;21.48;8.65;;;7.40;99.90;;;;;;5003134;28;20648;-81
2023/05/25 04:17:39;;;;;;;17.48;7.45;;;7.40;99.90;;;;;;4980278;28;20125;-81
2023/05/25 04:20:07;;;;;;;18.98;8.10;;;7.50;99.90;;;;;;4995609;28;20946;-82
2023/05/25 04:22:33;;;;;;;16.30;7.53;;;7.50;99.90;;;;;;5011011;28;20045;-82
2023/05/25 04:24:58;;;;;;;19.67;7.72;;;7.60;99.90;;;;;;4982406;28;20041;-82
2023/05/25 04:27:25;;;;;;;15.32;8.40;;;7.60;99.90;;;;;;5005009;28;20041;-82
2023/05/25 04:29:53;;;;;;;21.65;8.38;;;7.70;99.90;;;;;;4983813;28;20036;-82
2023/05/25 04:32:20;;;;;;;20.02;7.75;;;7.60;99.90;;;;;;4996568;28;20036;-82
2023/05/25 04:34:47;;;;;;;16.85;8.20;;;7.60;99.90;;;;;;4990020;28;20044;-82
2023/05/25 04:37:13;;;;;;;19.83;8.57;;;7.60;99.90;;;;;;5018265;28;20069;-81
2023/05/25 04:39:39;;;;;;;21.75;8.32;;;7.70;99.90;;;;;;4960290;28;20037;-82
2023/05/25 04:42:05;;;;;;;21.27;8.13;;;7.70;99.90;;;;;;5009111;28;20067;-81
2023/05/25 04:44:34;;;;;;;16.60;7.65;;;7.80;99.90;;;;;;4973004;28;20034;-81
2023/05/25 04:47:01;;;;;;;19.73;8.98;;;7.90;99.90;;;;;;5000236;28;20526;-82
2023/05/25 04:49:27;;;;;;;21.25;8.95;;;7.90;99.90;;;;;;5021445;28;20157;-81
2023/05/25 04:51:53;;;;;;;19.83;8.57;;;7.90;99.90;;;;;;4993007;28;20071;-82
2023/05/25 04:54:19;;;;;;;24.08;10.05;;;8.00;99.90;;;;;;5000366;28;20042;-82
2023/05/25 04:56:44;;;;;;;31.95;10.43;;;8.20;99.90;;;;;;4986491;28;20038;-82
2023/05/25 04:59:10;;;;;;;23.58;8.50;;;8.30;99.90;;;;;;4982917;28;20045;-82
2023/05/25 05:01:39;;;;;;;23.08;9.02;;;8.40;99.90;;;;;;5007357;28;20090;-82
2023/05/25 05:04:06;;;;;;;23.45;9.57;;;8.50;99.90;;;;;;5006444;28;21728;-82
2023/05/25 05:06:33;;;;;;;27.77;8.80;;;8.60;99.90;;;;;;5004645;28;20403;-80
2023/05/25 05:09:00;;;;;;;29.05;9.73;;;8.60;99.90;;;;;;5007687;28;20553;-81
2023/05/25 05:11:26;;;;;;;25.42;10.20;;;8.70;99.90;;;;;;5024014;28;20056;-81
2023/05/25 05:13:53;;;;;;;19.73;10.32;;;8.80;99.90;;;;;;4959895;28;20037;-80
2023/05/25 05:16:19;;;;;;;26.90;9.90;;;8.80;99.90;;;;;;4976141;28;20571;-81
2023/05/25 05:18:45;;;;;;;20.35;8.93;;;8.90;99.90;;;;;;4991406;28;20038;-80
2023/05/25 05:21:10;;;;;;;25.40;9.73;;;9.00;99.90;;;;;;4989831;28;20087;-80
2023/05/25 05:23:36;;;;;;;24.67;9.85;;;9.10;99.90;;;;;;5007962;28;20037;-81
2023/05/25 05:26:03;;;;;;;17.65;8.40;;;9.10;99.90;;;;;;4992319;28;20037;-81
2023/05/25 05:28:30;;;;;;;17.63;8.93;;;9.20;99.90;;;;;;4975628;28;20045;-80
2023/05/25 05:30:56;;;;;;;21.63;10.27;;;9.20;99.90;;;;;;4987711;28;20064;-82
2023/05/25 05:33:24;;;;;;;25.00;9.13;;;9.30;99.90;;;;;;5006892;28;20040;-81
2023/05/25 05:35:51;;;;;;;21.50;9.13;;;9.40;99.90;;;;;;4975354;28;20557;-82
2023/05/25 05:38:17;;;;;;;20.02;9.10;;;9.50;99.90;;;;;;4989095;28;20124;-81
2023/05/25 05:40:43;;;;;;;24.20;9.38;;;9.50;99.90;;;;;;4991147;28;20060;-80
2023/05/25 05:43:11;;;;;;;20.10;9.07;;;9.60;99.90;;;;;;4989560;28;20140;-81
2023/05/25 05:45:36;;;;;;;19.73;8.82;;;9.70;99.90;;;;;;5006406;28;20045;-80
2023/05/25 05:48:03;;;;;;;20.08;8.43;;;9.70;99.90;;;;;;5005372;28;20491;-80
2023/05/25 05:50:29;;;;;;;21.90;9.60;;;9.80;99.90;;;;;;4989817;28;20474;-83
2023/05/25 05:52:55;;;;;;;20.05;8.57;;;9.90;99.90;;;;;;4980306;28;20127;-83
2023/05/25 05:55:21;;;;;;;15.65;8.45;;;10.00;99.90;;;;;;4986850;28;20038;-82
2023/05/25 05:57:47;;;;;;;20.65;8.77;;;10.20;99.90;;;;;;4992563;28;20038;-83
2023/05/25 06:00:14;;;;;;;19.92;9.18;;;10.20;99.90;;;;;;4971708;28;20185;-83
2023/05/25 06:02:41;;;;;;;23.23;8.45;;;10.20;99.90;;;;;;4995547;28;20443;-83
2023/05/25 06:05:07;;;;;;;18.15;8.75;;;10.40;99.90;;;;;;4987935;28;20042;-84
2023/05/25 06:07:34;;;;;;;16.05;8.82;;;10.50;99.90;;;;;;4972037;28;20120;-82
2023/05/25 06:10:00;;;;;;;19.33;8.48;;;10.60;99.90;;;;;;4985014;28;20038;-81
2023/05/25 06:12:26;;;;;;;23.65;8.07;;;10.70;99.90;;;;;;4991087;28;20037;-83
2023/05/25 06:14:52;;;;;;;22.20;8.38;;;10.80;99.90;;;;;;4990293;28;20124;-83
2023/05/25 06:17:18;;;;;;;17.58;8.18;;;10.90;99.90;;;;;;4989233;28;20068;-83
2023/05/25 06:19:44;;;;;;;15.27;8.80;;;11.00;99.90;;;;;;5006040;28;20163;-83
2023/05/25 06:22:10;;;;;;;17.42;6.45;;;11.10;99.90;;;;;;4990928;28;20048;-83
2023/05/25 06:24:35;;;;;;;22.63;6.60;;;11.30;99.90;;;;;;4993609;28;20038;-83
2023/05/25 06:27:02;;;;;;;18.48;6.35;;;11.40;99.90;;;;;;4997241;28;20035;-80
2023/05/25 06:29:28;;;;;;;14.93;6.30;;;11.60;99.90;;;;;;5010054;28;20475;-79
2023/05/25 06:31:54;;;;;;;17.80;6.10;;;11.70;99.90;;;;;;5006775;28;20118;-79
2023/05/25 06:34:20;;;;;;;15.95;6.20;;;11.90;99.90;;;;;;4976094;28;20041;-80
2023/05/25 06:36:46;;;;;;;18.85;5.93;;;12.00;99.90;;;;;;4991519;28;20041;-83
2023/05/25 06:39:12;;;;;;;14.82;6.25;;;12.10;99.90;;;;;;4991227;28;20547;-82
2023/05/25 06:41:39;;;;;;;12.90;4.72;;;12.20;99.90;;;;;;4993715;28;20077;-83
2023/05/25 06:44:06;;;;;;;12.50;5.25;;;12.30;99.90;;;;;;4992037;28;20151;-83
2023/05/25 06:46:32;;;;;;;12.70;4.82;;;12.40;99.90;;;;;;5014008;28;20049;-83
2023/05/25 06:48:59;;;;;;;15.00;5.05;;;12.40;99.90;;;;;;4989503;28;20041;-83
2023/05/25 06:51:26;;;;;;;15.80;5.95;;;12.40;99.90;;;;;;4993071;28;20026;-83
2023/05/25 06:53:54;;;;;;;14.07;5.53;;;12.40;99.90;;;;;;4999150;28;20265;-83
2023/05/25 06:56:20;;;;;;;14.15;5.13;;;12.40;99.90;;;;;;5015454;28;20029;-83
2023/05/25 06:58:46;;;;;;;16.35;5.57;;;12.60;99.90;;;;;;5015612;28;20077;-83
2023/05/25 07:01:11;;;;;;;13.45;5.10;;;12.70;99.90;;;;;;5003346;28;20076;-82
2023/05/25 07:03:37;;;;;;;16.58;4.72;;;12.80;99.90;;;;;;4998827;28;20049;-83
2023/05/25 07:06:04;;;;;;;14.65;5.30;;;12.90;99.90;;;;;;5011855;28;20041;-83
2023/05/25 07:08:30;;;;;;;19.45;5.38;;;13.10;99.90;;;;;;5009708;28;20486;-83
2023/05/25 07:10:56;;;;;;;13.35;4.32;;;13.20;99.90;;;;;;5015748;28;20046;-83
2023/05/25 07:13:21;;;;;;;15.18;3.67;;;13.30;99.90;;;;;;4983655;28;20546;-83
2023/05/25 07:15:47;;;;;;;14.90;4.97;;;13.30;99.90;;;;;;4995425;28;20037;-83
2023/05/25 07:18:14;;;;;;;21.42;4.65;;;13.20;99.90;;;;;;4974345;28;20033;-83
2023/05/25 07:20:40;;;;;;;14.27;4.82;;;13.20;99.90;;;;;;4994875;28;20102;-84
2023/05/25 07:23:10;;;;;;;11.23;4.13;;;13.20;99.90;;;;;;4982957;28;20621;-83
2023/05/25 07:25:40;;;;;;;12.68;4.05;;;13.20;99.90;;;;;;5013651;28;20115;-83
2023/05/25 07:28:06;;;;;;;10.68;3.70;;;13.10;99.90;;;;;;5006699;28;20041;-83
2023/05/25 07:30:32;;;;;;;11.77;3.70;;;13.20;99.90;;;;;;4999922;28;20117;-83
2023/05/25 07:32:58;;;;;;;13.80;4.13;;;13.30;99.90;;;;;;4982086;28;20037;-84
2023/05/25 07:35:24;;;;;;;9.50;3.55;;;13.40;99.90;;;;;;5031538;28;20052;-83
2023/05/25 07:38:01;;;;;;;11.80;3.88;;;13.40;99.90;;;;;;4993636;28;20041;-84
2023/05/25 07:40:27;;;;;;;11.10;3.47;;;13.50;99.90;;;;;;4996326;28;20057;-83
2023/05/25 07:42:53;;;;;;;11.68;3.70;;;13.70;99.90;;;;;;5007011;28;20120;-85
2023/05/25 07:45:19;;;;;;;13.05;4.03;;;13.80;99.90;;;;;;5006188;28;20125;-84
2023/05/25 07:47:46;;;;;;;19.08;4.78;;;13.80;99.90;;;;;;4997150;28;20055;-84
2023/05/25 07:50:13;;;;;;;14.00;3.50;;;13.80;99.90;;;;;;5008183;28;20112;-83
2023/05/25 07:52:39;;;;;;;8.57;3.10;;;13.90;99.90;;;;;;5016343;28;20393;-83
2023/05/25 07:55:08;;;;;;;11.35;3.67;;;14.00;99.90;;;;;;4993910;28;20121;-84
2023/05/25 07:57:34;;;;;;;10.60;3.15;;;14.20;99.90;;;;;;4997622;28;20042;-85
2023/05/25 08:00:00;;;;;;;8.85;3.38;;;14.30;99.90;;;;;;5000054;28;20056;-83
2023/05/25 08:02:26;;;;;;;11.05;3.50;;;14.20;99.90;;;;;;4980699;28;20531;-84
2023/05/25 08:04:51;;;;;;;11.90;4.10;;;14.20;99.90;;;;;;5013973;28;20057;-84
2023/05/25 08:07:20;;;;;;;11.27;3.17;;;14.20;99.90;;;;;;4977235;28;20096;-83
2023/05/25 08:09:46;;;;;;;11.23;4.65;;;14.20;99.90;;;;;;4997611;28;20045;-84
2023/05/25 08:12:12;;;;;;;15.25;4.78;;;14.20;99.90;;;;;;4980473;28;20042;-84
2023/05/25 08:14:38;;;;;;;12.45;3.92;;;14.20;99.90;;;;;;4997960;28;20048;-84
2023/05/25 08:17:04;;;;;;;14.80;5.07;;;14.10;99.90;;;;;;4994888;28;20149;-84
2023/05/25 08:19:31;;;;;;;12.38;4.07;;;14.20;99.90;;;;;;4980737;28;20553;-84
2023/05/25 08:21:57;;;;;;;11.57;4.10;;;14.10;99.90;;;;;;4997235;28;20041;-84
2023/05/25 08:24:23;;;;;;;13.02;4.30;;;14.10;99.90;;;;;;5013088;28;20068;-83
2023/05/25 08:26:48;;;;;;;21.70;5.45;;;14.20;99.90;;;;;;5000471;28;20521;-83
2023/05/25 08:29:14;;;;;;;20.10;5.88;;;14.20;99.90;;;;;;5009775;28;20053;-84
2023/05/25 08:31:42;;;;;;;11.13;3.83;;;14.20;99.90;;;;;;4997075;28;20038;-85
2023/05/25 08:34:08;;;;;;;18.83;4.40;;;14.30;99.90;;;;;;5013221;28;20120;-83
2023/05/25 08:36:34;;;;;;;24.30;5.35;;;14.20;99.90;;;;;;5013517;28;20044;-84
2023/05/25 08:39:01;;;;;;;14.55;4.82;;;14.30;99.90;;;;;;4995311;28;20119;-83
2023/05/25 08:41:28;;;;;;;12.15;4.40;;;14.30;99.90;;;;;;5011478;28;20029;-84
2023/05/25 08:43:54;;;;;;;15.77;4.43;;;14.30;99.90;;;;;;4981582;28;20045;-84
2023/05/25 08:46:29;;;;;;;17.45;4.65;;;14.20;99.90;;;;;;5009103;28;20044;-81
2023/05/25 08:49:02;;;;;;;15.20;4.78;;;14.20;99.90;;;;;;5009816;28;20543;-80
2023/05/25 08:51:31;;;;;;;14.82;4.75;;;14.20;99.90;;;;;;5022768;28;20398;-82
2023/05/25 08:54:01;;;;;;;11.93;4.80;;;14.10;99.90;;;;;;5008242;28;20057;-80
2023/05/25 08:56:33;;;;;;;13.40;4.68;;;14.10;99.90;;;;;;4996851;28;20494;-80
2023/05/25 08:59:13;;;;;;;19.35;5.30;;;14.10;99.90;;;;;;5029692;28;20120;-80
2023/05/25 09:01:44;;;;;;;15.20;4.38;;;14.10;99.90;;;;;;4997026;28;20073;-80
2023/05/25 09:04:12;;;;;;;24.90;6.87;;;14.10;99.90;;;;;;4996820;28;20495;-80
2023/05/25 09:06:38;;;;;;;17.90;5.25;;;14.30;99.90;;;;;;5004944;28;20050;-83
2023/05/25 09:09:04;;;;;;;18.30;4.40;;;14.30;99.90;;;;;;4976597;28;20038;-82
2023/05/25 09:11:31;;;;;;;14.75;4.18;;;14.30;99.90;;;;;;4978686;28;20061;-82
2023/05/25 09:13:57;;;;;;;12.95;4.18;;;14.30;99.90;;;;;;4941189;28;20049;-82
2023/05/25 09:16:25;;;;;;;13.52;4.53;;;14.30;99.90;;;;;;4968794;28;20113;-83
2023/05/25 09:18:50;;;;;;;14.90;4.30;;;14.40;99.90;;;;;;4995098;28;20045;-81
2023/05/25 09:21:16;;;;;;;16.13;4.68;;;14.50;99.90;;;;;;4968457;28;20033;-82
2023/05/25 09:23:42;;;;;;;17.23;5.25;;;14.70;99.90;;;;;;4996680;28;20041;-82
2023/05/25 09:26:08;;;;;;;18.92;4.95;;;14.90;99.90;;;;;;5004619;28;20041;-82
2023/05/25 09:28:34;;;;;;;22.23;5.18;;;14.90;99.90;;;;;;5011835;28;20120;-81
2023/05/25 09:31:00;;;;;;;23.52;4.88;;;14.80;99.90;;;;;;4999588;28;20029;-82
2023/05/25 09:33:25;;;;;;;20.92;4.63;;;15.00;99.90;;;;;;4986122;28;20491;-82
2023/05/25 09:35:51;;;;;;;18.17;4.97;;;15.20;99.90;;;;;;5008010;28;20057;-82
2023/05/25 09:38:18;;;;;;;22.25;5.38;;;15.30;99.90;;;;;;4981353;28;20038;-82
2023/05/25 09:40:44;;;;;;;17.38;4.78;;;15.70;99.90;;;;;;4961701;28;20042;-82
2023/05/25 09:43:13;;;;;;;14.82;3.80;;;16.10;99.90;;;;;;5003038;28;20411;-83
2023/05/25 09:45:38;;;;;;;18.27;4.18;;;16.40;99.90;;;;;;4963421;28;20046;-86
2023/05/25 09:48:06;;;;;;;18.67;3.88;;;16.90;99.90;;;;;;4994801;28;20038;-86
2023/05/25 09:50:32;;;;;;;19.77;4.90;;;17.10;99.90;;;;;;4973214;28;20479;-86
2023/05/25 09:52:59;;;;;;;16.92;5.05;;;16.90;99.00;;;;;;4973727;28;20030;-85
2023/05/25 09:55:29;;;;;;;19.25;6.45;;;16.80;98.60;;;;;;4972406;28;20049;-85
2023/05/25 09:57:56;;;;;;;22.40;5.65;;;16.70;99.20;;;;;;4999277;28;20045;-84
2023/05/25 10:00:26;;;;;;;15.15;4.90;;;16.60;98.80;;;;;;4972649;28;20046;-84
2023/05/25 10:02:52;;;;;;;18.00;5.43;;;16.80;99.50;;;;;;4958233;28;20136;-85
2023/05/25 10:05:17;;;;;;;19.52;6.28;;;16.90;98.60;;;;;;5005716;28;20535;-85
2023/05/25 10:07:45;;;;;;;18.77;4.90;;;17.00;98.70;;;;;;4967134;28;20101;-84
2023/05/25 10:10:16;;;;;;;19.27;5.43;;;16.60;98.20;;;;;;4949101;28;20077;-85
2023/05/25 10:12:43;;;;;;;19.38;5.97;;;16.70;99.00;;;;;;4970155;28;20042;-85
2023/05/25 10:15:11;;;;;;;23.73;7.95;;;16.90;98.30;;;;;;4975788;28;20668;-85
2023/05/25 10:17:43;;;;;;;24.40;6.40;;;17.10;98.50;;;;;;4973374;28;20042;-84
2023/05/25 10:20:10;;;;;;;24.05;5.88;;;17.30;98.20;;;;;;4959575;28;20411;-84
2023/05/25 10:22:43;;;;;;;20.80;5.28;;;17.00;96.50;;;;;;4972060;28;20103;-83
2023/05/25 10:25:18;;;;;;;16.77;4.72;;;16.90;96.50;;;;;;4951759;28;20129;-84
2023/05/25 10:27:54;;;;;;;18.42;4.50;;;16.90;97.20;;;;;;4955203;28;20042;-85
2023/05/25 10:30:20;;;;;;;20.35;4.90;;;16.70;96.80;;;;;;4997425;28;20087;-85
2023/05/25 10:32:46;;;;;;;19.75;5.07;;;16.60;97.20;;;;;;4976548;28;20042;-84
2023/05/25 10:35:13;;;;;;;17.15;5.60;;;16.50;96.80;;;;;;4938421;28;20081;-84
2023/05/25 10:37:39;;;;;;;17.05;5.13;;;16.60;96.50;;;;;;4960613;28;20522;-84
2023/05/25 10:40:07;;;;;;;17.25;4.18;;;17.00;97.30;;;;;;4944573;28;20030;-85
2023/05/25 10:42:35;;;;;;;19.23;4.75;;;16.80;96.10;;;;;;4976798;28;20034;-84
2023/05/25 10:45:06;;;;;;;20.02;4.18;;;16.80;95.70;;;;;;4947463;28;20046;-85
2023/05/25 10:47:33;;;;;;;16.83;4.50;;;16.80;96.10;;;;;;4994497;28;20052;-84
2023/05/25 10:50:01;;;;;;;18.65;5.03;;;16.50;96.20;;;;;;4969305;28;20411;-83
2023/05/25 10:52:29;;;;;;;16.38;4.72;;;16.60;96.90;;;;;;4962672;28;20053;-85
2023/05/25 10:55:04;;;;;;;16.50;4.85;;;16.80;96.30;;;;;;4956583;28;20043;-85
2023/05/25 10:57:30;;;;;;;13.85;4.53;;;17.10;95.60;;;;;;4958283;28;20046;-84
2023/05/25 11:00:07;;;;;;;15.40;4.40;;;17.40;95.00;;;;;;4974889;28;20053;-83
2023/05/25 11:02:54;;;;;;;16.90;3.97;;;17.20;94.80;;;;;;4990549;28;20064;-83
2023/05/25 11:05:26;;;;;;;22.23;4.88;;;17.20;95.40;;;;;;4957877;28;20101;-82
2023/05/25 11:07:59;;;;;;;15.95;5.00;;;17.30;95.00;;;;;;4986756;28;20052;-82
2023/05/25 11:10:57;;;;;;;17.60;4.53;;;17.30;94.20;;;;;;4961977;28;20090;-81
2023/05/25 11:13:31;;;;;;;24.33;5.68;;;16.90;94.40;;;;;;4977141;28;20060;-81
2023/05/25 11:16:19;;;;;;;12.27;4.10;;;17.20;95.90;;;;;;4961811;28;20041;-82
2023/05/25 11:18:52;;;;;;;26.90;5.18;;;17.60;95.20;;;;;;4991055;28;20053;-81
2023/05/25 11:21:41;;;;;;;14.35;4.85;;;18.00;94.80;;;;;;4985186;28;20038;-81
2023/05/25 11:24:16;;;;;;;17.95;5.50;;;18.20;94.60;;;;;;4947850;28;20526;-81
2023/05/25 11:26:54;;;;;;;16.33;4.45;;;18.60;94.10;;;;;;4990945;28;20447;-82
2023/05/25 11:29:24;;;;;;;17.83;5.03;;;18.70;93.30;;;;;;4977040;28;20034;-81
2023/05/25 11:31:55;;;;;;;17.17;4.90;;;18.70;92.70;;;;;;4990944;28;20041;-81
2023/05/25 11:34:26;;;;;;;14.30;4.93;;;18.70;92.50;;;;;;4979812;28;20046;-81
2023/05/25 11:36:56;;;;;;;18.90;6.53;;;18.70;93.30;;;;;;4973823;28;20905;-81
2023/05/25 11:39:22;;;;;;;16.17;5.43;;;18.70;93.30;;;;;;4961460;28;20045;-82
2023/05/25 11:41:51;;;;;;;14.85;4.78;;;18.90;93.30;;;;;;4971684;28;20495;-81
2023/05/25 11:44:28;;;;;;;19.00;5.40;;;19.00;93.30;;;;;;4975322;28;20042;-82
2023/05/25 11:47:00;;;;;;;18.05;4.63;;;19.20;92.60;;;;;;4984252;28;20527;-81
2023/05/25 11:49:26;;;;;;;11.88;4.28;;;19.00;92.60;;;;;;4985163;28;20045;-82
2023/05/25 11:52:05;;;;;;;28.60;5.40;;;18.80;91.80;;;;;;4970036;28;20512;-82
2023/05/25 11:54:32;;;;;;;17.80;4.82;;;18.90;91.60;;;;;;4971908;28;20046;-81
2023/05/25 11:56:58;;;;;;;17.58;5.40;;;18.90;92.40;;;;;;4977743;28;20558;-81
2023/05/25 11:59:25;;;;;;;17.70;5.30;;;19.10;92.60;;;;;;4969740;28;20042;-82
2023/05/25 12:02:02;;;;;;;18.05;5.38;;;19.20;91.50;;;;;;4951308;28;20045;-82
2023/05/25 12:04:29;;;;;;;18.77;5.60;;;19.00;91.80;;;;;;4991658;28;20449;-81
2023/05/25 12:07:06;;;;;;;14.50;5.18;;;18.70;91.40;;;;;;4966488;28;20053;-82
2023/05/25 12:09:33;;;;;;;16.63;5.70;;;18.90;91.50;;;;;;5000195;28;20411;-81
2023/05/25 12:12:01;;;;;;;13.25;5.10;;;18.90;92.60;;;;;;4982569;28;20060;-81
2023/05/25 12:14:27;;;;;;;18.75;4.70;;;18.80;91.70;;;;;;4982213;28;20081;-81
2023/05/25 12:16:53;;;;;;;16.35;4.97;;;18.40;91.20;;;;;;4965409;28;20127;-80
2023/05/25 12:19:20;;;;;;;20.00;4.53;;;18.50;91.70;;;;;;4998343;28;20045;-81
2023/05/25 12:21:49;;;;;;;16.30;5.05;;;18.60;91.90;;;;;;4960764;28;20037;-81
2023/05/25 12:24:16;;;;;;;18.98;5.25;;;18.70;92.20;;;;;;4980276;28;20041;-80
2023/05/25 12:26:49;;;;;;;15.82;4.72;;;18.80;91.80;;;;;;4962060;28;20423;-82
2023/05/25 12:29:15;;;;;;;15.45;4.82;;;18.80;91.20;;;;;;5010150;28;20102;-81
2023/05/25 12:31:41;;;;;;;16.45;5.53;;;18.40;91.40;;;;;;4973194;28;20030;-81
2023/05/25 12:34:08;;;;;;;19.60;5.22;;;18.40;91.60;;;;;;4994533;28;20092;-81
2023/05/25 12:36:53;;;;;;;17.83;4.45;;;18.40;91.20;;;;;;4991500;28;20045;-81
2023/05/25 12:39:28;;;;;;;19.33;4.82;;;18.60;91.90;;;;;;4977512;28;20072;-81
2023/05/25 12:41:54;;;;;;;15.85;5.07;;;18.60;91.00;;;;;;4995684;28;20036;-80
2023/05/25 12:44:25;;;;;;;24.95;5.20;;;18.60;91.30;;;;;;4977755;28;20052;-83
2023/05/25 12:46:52;;;;;;;15.60;5.10;;;18.80;91.80;;;;;;5015461;28;20029;-82